Portada
METAR-TAF:

METAR-TAF

Aeroports :

Llemotges, França

latitud: 45-52N, longitud: 001-11E, altitud: 396 m

Observació

L'informe es va fer fa 47 minuts, a les 18:30 UTC
Vent 2 kt del Nord-Oest
Temperatura 13°C
Humitat 88%
Pressió 1023 hPa
Visibilitat 10 km o més
sense núvols per sota de 1500 mi sense presència de cumulonimbus.

METAR: LFBL 211830Z AUTO 31002KT CAVOK 13/11 Q1023 NOSIG

Hora: 21:17 (19:17 UTC)

Pronòstic

L'informe es va fer fa 3 hores i 10 minuts, a les 16:07 UTC
Pronòstic vàlid del 21 a les 16 UTC al 22 a les 12 UTC
Vent 8 kt del Oest/Nord-Oest
Visibilitat 10 km o més
Cel ennuvolat a una alçada de 1300 ft
Cel ennuvolat a una alçada de 6000 ft
Evolucionant progressivament
l' 21 a les 16 UTC al 21 a les 18 UTC
Núvols disperses a una alçada de 3000 ft

TAF: LFBL 211607Z 2116/2212 29008KT 9999 BKN013 BKN060 BECMG 2116/2118 SCT030

Observacions i pronòstics meteorològics de més de 4000 aeroports (METAR i TAF).

Les estacions disponibles són els punts grocs i vermells al mapa.

Posi el ratolí al punt desitjat per veure el nom de l'estació.

Feu clic per veure les observacions i els pronòstics meteorològics.

Per canviar el mapa: feu clic els botons verds amb una creu de color negre per apropar; al botó verd amb un guió per allunyar la imatge; o en les fletxes verdes per a mapes adjacents.


METAR-TAF: